sensor_id;sensor_type;location;lat;lon;timestamp;P1;durP1;ratioP1;P2;durP2;ratioP2
62056;SDS011;48016;50.284;18.860;2024-02-26T00:01:53;26.90;;;14.30;;
62056;SDS011;48016;50.284;18.860;2024-02-26T00:04:22;27.60;;;14.60;;
62056;SDS011;48016;50.284;18.860;2024-02-26T00:06:48;30.60;;;16.10;;
62056;SDS011;48016;50.284;18.860;2024-02-26T00:09:16;29.60;;;14.80;;
62056;SDS011;48016;50.284;18.860;2024-02-26T00:11:42;28.70;;;16.10;;
62056;SDS011;48016;50.284;18.860;2024-02-26T00:14:08;29.50;;;15.50;;
62056;SDS011;48016;50.284;18.860;2024-02-26T00:16:34;28.10;;;16.40;;
62056;SDS011;48016;50.284;18.860;2024-02-26T00:19:00;28.80;;;15.50;;
62056;SDS011;48016;50.284;18.860;2024-02-26T00:21:26;29.80;;;15.70;;
62056;SDS011;48016;50.284;18.860;2024-02-26T00:23:53;29.60;;;16.20;;
62056;SDS011;48016;50.284;18.860;2024-02-26T00:26:19;29.50;;;15.90;;
62056;SDS011;48016;50.284;18.860;2024-02-26T00:28:45;30.70;;;16.40;;
62056;SDS011;48016;50.284;18.860;2024-02-26T00:31:11;31.40;;;15.20;;
62056;SDS011;48016;50.284;18.860;2024-02-26T00:33:37;30.50;;;17.50;;
62056;SDS011;48016;50.284;18.860;2024-02-26T00:36:04;30.10;;;16.90;;
62056;SDS011;48016;50.284;18.860;2024-02-26T00:38:30;27.40;;;16.90;;
62056;SDS011;48016;50.284;18.860;2024-02-26T00:40:56;28.40;;;15.20;;
62056;SDS011;48016;50.284;18.860;2024-02-26T00:43:22;32.10;;;17.20;;
62056;SDS011;48016;50.284;18.860;2024-02-26T00:45:48;28.00;;;15.90;;
62056;SDS011;48016;50.284;18.860;2024-02-26T00:48:14;29.60;;;16.40;;
62056;SDS011;48016;50.284;18.860;2024-02-26T00:50:40;30.30;;;15.60;;
62056;SDS011;48016;50.284;18.860;2024-02-26T00:53:06;27.50;;;15.20;;
62056;SDS011;48016;50.284;18.860;2024-02-26T00:55:34;28.70;;;15.50;;
62056;SDS011;48016;50.284;18.860;2024-02-26T00:58:00;24.40;;;13.80;;
62056;SDS011;48016;50.284;18.860;2024-02-26T01:00:26;25.90;;;13.40;;
62056;SDS011;48016;50.284;18.860;2024-02-26T01:02:52;28.40;;;15.70;;
62056;SDS011;48016;50.284;18.860;2024-02-26T01:05:18;28.10;;;14.80;;
62056;SDS011;48016;50.284;18.860;2024-02-26T01:07:44;27.10;;;14.50;;
62056;SDS011;48016;50.284;18.860;2024-02-26T01:10:10;27.40;;;14.40;;
62056;SDS011;48016;50.284;18.860;2024-02-26T01:12:36;27.50;;;15.00;;
62056;SDS011;48016;50.284;18.860;2024-02-26T01:15:02;23.70;;;14.60;;
62056;SDS011;48016;50.284;18.860;2024-02-26T01:17:28;30.10;;;14.40;;
62056;SDS011;48016;50.284;18.860;2024-02-26T01:19:55;27.90;;;15.30;;
62056;SDS011;48016;50.284;18.860;2024-02-26T01:22:21;24.40;;;13.90;;
62056;SDS011;48016;50.284;18.860;2024-02-26T01:24:47;24.90;;;14.60;;
62056;SDS011;48016;50.284;18.860;2024-02-26T01:27:13;27.80;;;15.30;;
62056;SDS011;48016;50.284;18.860;2024-02-26T01:29:42;27.40;;;13.70;;
62056;SDS011;48016;50.284;18.860;2024-02-26T01:32:12;26.00;;;13.70;;
62056;SDS011;48016;50.284;18.860;2024-02-26T01:34:38;25.80;;;15.00;;
62056;SDS011;48016;50.284;18.860;2024-02-26T01:37:04;27.50;;;16.00;;
62056;SDS011;48016;50.284;18.860;2024-02-26T01:39:30;28.80;;;15.70;;
62056;SDS011;48016;50.284;18.860;2024-02-26T01:41:56;25.50;;;14.50;;
62056;SDS011;48016;50.284;18.860;2024-02-26T01:44:22;27.40;;;15.50;;
62056;SDS011;48016;50.284;18.860;2024-02-26T01:46:50;28.60;;;15.00;;
62056;SDS011;48016;50.284;18.860;2024-02-26T01:49:16;27.30;;;16.30;;
62056;SDS011;48016;50.284;18.860;2024-02-26T01:51:42;33.60;;;17.30;;
62056;SDS011;48016;50.284;18.860;2024-02-26T01:54:09;27.70;;;15.40;;
62056;SDS011;48016;50.284;18.860;2024-02-26T01:56:36;28.90;;;16.20;;
62056;SDS011;48016;50.284;18.860;2024-02-26T01:59:03;27.80;;;16.20;;
62056;SDS011;48016;50.284;18.860;2024-02-26T02:03:58;27.40;;;16.30;;
62056;SDS011;48016;50.284;18.860;2024-02-26T02:06:25;26.40;;;15.60;;
62056;SDS011;48016;50.284;18.860;2024-02-26T02:08:54;26.40;;;15.20;;
62056;SDS011;48016;50.284;18.860;2024-02-26T02:11:22;29.20;;;17.20;;
62056;SDS011;48016;50.284;18.860;2024-02-26T02:13:49;27.40;;;15.20;;
62056;SDS011;48016;50.284;18.860;2024-02-26T02:16:15;26.70;;;15.00;;
62056;SDS011;48016;50.284;18.860;2024-02-26T02:18:41;29.20;;;16.20;;
62056;SDS011;48016;50.284;18.860;2024-02-26T02:21:07;26.10;;;15.40;;
62056;SDS011;48016;50.284;18.860;2024-02-26T02:23:34;29.10;;;16.40;;
62056;SDS011;48016;50.284;18.860;2024-02-26T02:26:00;26.00;;;15.60;;
62056;SDS011;48016;50.284;18.860;2024-02-26T02:28:26;29.00;;;16.10;;
62056;SDS011;48016;50.284;18.860;2024-02-26T02:30:53;24.50;;;14.70;;
62056;SDS011;48016;50.284;18.860;2024-02-26T02:33:20;28.70;;;17.20;;
62056;SDS011;48016;50.284;18.860;2024-02-26T02:35:47;34.10;;;18.20;;
62056;SDS011;48016;50.284;18.860;2024-02-26T02:38:13;29.10;;;16.00;;
62056;SDS011;48016;50.284;18.860;2024-02-26T02:40:39;25.00;;;14.20;;
62056;SDS011;48016;50.284;18.860;2024-02-26T02:43:04;23.50;;;13.70;;
62056;SDS011;48016;50.284;18.860;2024-02-26T02:45:30;21.00;;;14.10;;
62056;SDS011;48016;50.284;18.860;2024-02-26T02:47:56;23.80;;;12.70;;
62056;SDS011;48016;50.284;18.860;2024-02-26T02:50:22;19.90;;;12.50;;
62056;SDS011;48016;50.284;18.860;2024-02-26T02:52:48;20.80;;;12.20;;
62056;SDS011;48016;50.284;18.860;2024-02-26T02:55:16;24.10;;;12.20;;
62056;SDS011;48016;50.284;18.860;2024-02-26T02:57:42;19.80;;;11.60;;
62056;SDS011;48016;50.284;18.860;2024-02-26T03:00:08;21.00;;;11.80;;
62056;SDS011;48016;50.284;18.860;2024-02-26T03:02:35;19.80;;;11.10;;
62056;SDS011;48016;50.284;18.860;2024-02-26T03:05:02;22.30;;;11.90;;
62056;SDS011;48016;50.284;18.860;2024-02-26T03:07:29;21.80;;;13.00;;
62056;SDS011;48016;50.284;18.860;2024-02-26T03:09:55;20.50;;;12.40;;
62056;SDS011;48016;50.284;18.860;2024-02-26T03:12:21;19.10;;;11.50;;
62056;SDS011;48016;50.284;18.860;2024-02-26T03:14:47;21.30;;;12.40;;
62056;SDS011;48016;50.284;18.860;2024-02-26T03:17:13;19.80;;;11.50;;
62056;SDS011;48016;50.284;18.860;2024-02-26T03:19:39;21.20;;;12.40;;
62056;SDS011;48016;50.284;18.860;2024-02-26T03:22:05;19.20;;;11.60;;
62056;SDS011;48016;50.284;18.860;2024-02-26T03:24:31;21.60;;;11.40;;
62056;SDS011;48016;50.284;18.860;2024-02-26T03:26:56;21.10;;;12.30;;
62056;SDS011;48016;50.284;18.860;2024-02-26T03:29:23;23.80;;;12.50;;
62056;SDS011;48016;50.284;18.860;2024-02-26T03:31:49;23.00;;;12.30;;
62056;SDS011;48016;50.284;18.860;2024-02-26T03:34:15;24.90;;;13.50;;
62056;SDS011;48016;50.284;18.860;2024-02-26T03:36:41;22.80;;;12.90;;
62056;SDS011;48016;50.284;18.860;2024-02-26T03:39:07;23.00;;;13.60;;
62056;SDS011;48016;50.284;18.860;2024-02-26T03:41:34;24.70;;;13.60;;
62056;SDS011;48016;50.284;18.860;2024-02-26T03:44:00;22.90;;;13.40;;
62056;SDS011;48016;50.284;18.860;2024-02-26T03:46:26;19.70;;;11.90;;
62056;SDS011;48016;50.284;18.860;2024-02-26T03:48:53;23.90;;;14.10;;
62056;SDS011;48016;50.284;18.860;2024-02-26T03:51:19;22.50;;;12.50;;
62056;SDS011;48016;50.284;18.860;2024-02-26T03:53:45;24.00;;;13.20;;
62056;SDS011;48016;50.284;18.860;2024-02-26T03:56:11;17.40;;;11.00;;
62056;SDS011;48016;50.284;18.860;2024-02-26T03:58:37;19.30;;;11.00;;
62056;SDS011;48016;50.284;18.860;2024-02-26T04:01:03;18.00;;;9.90;;
62056;SDS011;48016;50.284;18.860;2024-02-26T04:03:29;16.80;;;9.80;;
62056;SDS011;48016;50.284;18.860;2024-02-26T04:05:55;14.80;;;8.90;;
62056;SDS011;48016;50.284;18.860;2024-02-26T04:08:21;16.20;;;9.70;;
62056;SDS011;48016;50.284;18.860;2024-02-26T04:10:50;15.90;;;9.40;;
62056;SDS011;48016;50.284;18.860;2024-02-26T04:13:17;21.30;;;11.10;;
62056;SDS011;48016;50.284;18.860;2024-02-26T04:15:43;15.20;;;9.70;;
62056;SDS011;48016;50.284;18.860;2024-02-26T04:18:09;17.10;;;10.00;;
62056;SDS011;48016;50.284;18.860;2024-02-26T04:20:35;14.60;;;8.70;;
62056;SDS011;48016;50.284;18.860;2024-02-26T04:23:01;19.10;;;9.40;;
62056;SDS011;48016;50.284;18.860;2024-02-26T04:25:27;17.90;;;9.90;;
62056;SDS011;48016;50.284;18.860;2024-02-26T04:27:54;16.30;;;8.70;;
62056;SDS011;48016;50.284;18.860;2024-02-26T04:30:20;18.10;;;9.00;;
62056;SDS011;48016;50.284;18.860;2024-02-26T04:32:46;15.40;;;8.90;;
62056;SDS011;48016;50.284;18.860;2024-02-26T04:35:11;19.40;;;9.20;;
62056;SDS011;48016;50.284;18.860;2024-02-26T04:37:37;18.10;;;8.60;;
62056;SDS011;48016;50.284;18.860;2024-02-26T04:40:03;17.90;;;9.70;;
62056;SDS011;48016;50.284;18.860;2024-02-26T04:42:30;15.20;;;7.80;;
62056;SDS011;48016;50.284;18.860;2024-02-26T04:44:56;21.00;;;9.10;;
62056;SDS011;48016;50.284;18.860;2024-02-26T04:47:22;24.90;;;11.70;;
62056;SDS011;48016;50.284;18.860;2024-02-26T04:49:51;20.40;;;10.70;;
62056;SDS011;48016;50.284;18.860;2024-02-26T04:52:18;19.40;;;10.30;;
62056;SDS011;48016;50.284;18.860;2024-02-26T04:54:44;17.10;;;10.30;;
62056;SDS011;48016;50.284;18.860;2024-02-26T04:57:10;25.90;;;14.20;;
62056;SDS011;48016;50.284;18.860;2024-02-26T04:59:36;26.40;;;15.00;;
62056;SDS011;48016;50.284;18.860;2024-02-26T05:02:02;21.20;;;12.80;;
62056;SDS011;48016;50.284;18.860;2024-02-26T05:04:29;24.20;;;14.00;;
62056;SDS011;48016;50.284;18.860;2024-02-26T05:06:55;22.10;;;12.80;;
62056;SDS011;48016;50.284;18.860;2024-02-26T05:09:21;22.50;;;13.30;;
62056;SDS011;48016;50.284;18.860;2024-02-26T05:11:47;23.30;;;13.30;;
62056;SDS011;48016;50.284;18.860;2024-02-26T05:14:13;30.70;;;17.90;;
62056;SDS011;48016;50.284;18.860;2024-02-26T05:16:39;28.60;;;17.60;;
62056;SDS011;48016;50.284;18.860;2024-02-26T05:19:05;27.70;;;16.50;;
62056;SDS011;48016;50.284;18.860;2024-02-26T05:21:31;27.30;;;18.40;;
62056;SDS011;48016;50.284;18.860;2024-02-26T05:23:57;29.90;;;18.50;;
62056;SDS011;48016;50.284;18.860;2024-02-26T05:26:23;24.20;;;14.00;;
62056;SDS011;48016;50.284;18.860;2024-02-26T05:28:49;27.40;;;16.90;;
62056;SDS011;48016;50.284;18.860;2024-02-26T05:31:16;30.40;;;17.70;;
62056;SDS011;48016;50.284;18.860;2024-02-26T05:33:42;30.20;;;18.70;;
62056;SDS011;48016;50.284;18.860;2024-02-26T05:36:08;30.40;;;18.70;;
62056;SDS011;48016;50.284;18.860;2024-02-26T05:38:34;36.20;;;19.00;;
62056;SDS011;48016;50.284;18.860;2024-02-26T05:41:00;31.80;;;18.20;;
62056;SDS011;48016;50.284;18.860;2024-02-26T05:43:26;32.20;;;17.70;;
62056;SDS011;48016;50.284;18.860;2024-02-26T05:45:52;28.90;;;18.50;;
62056;SDS011;48016;50.284;18.860;2024-02-26T05:48:19;33.30;;;19.30;;
62056;SDS011;48016;50.284;18.860;2024-02-26T05:50:48;36.70;;;20.50;;
62056;SDS011;48016;50.284;18.860;2024-02-26T05:53:14;31.40;;;18.80;;
62056;SDS011;48016;50.284;18.860;2024-02-26T05:55:40;40.30;;;19.40;;
62056;SDS011;48016;50.284;18.860;2024-02-26T05:58:06;30.60;;;16.70;;
62056;SDS011;48016;50.284;18.860;2024-02-26T06:00:32;30.10;;;17.00;;
62056;SDS011;48016;50.284;18.860;2024-02-26T06:02:58;28.30;;;16.10;;
62056;SDS011;48016;50.284;18.860;2024-02-26T06:05:24;31.00;;;16.30;;
62056;SDS011;48016;50.284;18.860;2024-02-26T06:07:50;28.30;;;16.70;;
62056;SDS011;48016;50.284;18.860;2024-02-26T06:10:16;27.80;;;14.70;;
62056;SDS011;48016;50.284;18.860;2024-02-26T06:12:42;30.00;;;15.20;;
62056;SDS011;48016;50.284;18.860;2024-02-26T06:15:08;28.30;;;16.40;;
62056;SDS011;48016;50.284;18.860;2024-02-26T06:17:34;32.40;;;17.80;;
62056;SDS011;48016;50.284;18.860;2024-02-26T06:20:00;31.40;;;18.20;;
62056;SDS011;48016;50.284;18.860;2024-02-26T06:22:26;31.70;;;18.70;;
62056;SDS011;48016;50.284;18.860;2024-02-26T06:24:52;33.00;;;18.50;;
62056;SDS011;48016;50.284;18.860;2024-02-26T06:27:18;32.40;;;17.70;;
62056;SDS011;48016;50.284;18.860;2024-02-26T06:29:44;36.90;;;20.00;;
62056;SDS011;48016;50.284;18.860;2024-02-26T06:32:10;36.60;;;20.40;;
62056;SDS011;48016;50.284;18.860;2024-02-26T06:34:36;33.90;;;19.90;;
62056;SDS011;48016;50.284;18.860;2024-02-26T06:37:03;34.60;;;19.50;;
62056;SDS011;48016;50.284;18.860;2024-02-26T06:39:29;36.30;;;19.20;;
62056;SDS011;48016;50.284;18.860;2024-02-26T06:41:55;33.80;;;18.80;;
62056;SDS011;48016;50.284;18.860;2024-02-26T06:44:26;34.20;;;20.80;;
62056;SDS011;48016;50.284;18.860;2024-02-26T06:47:00;32.10;;;19.60;;
62056;SDS011;48016;50.284;18.860;2024-02-26T06:49:27;32.80;;;20.30;;
62056;SDS011;48016;50.284;18.860;2024-02-26T06:51:53;34.90;;;21.20;;
62056;SDS011;48016;50.284;18.860;2024-02-26T06:54:19;34.30;;;19.90;;
62056;SDS011;48016;50.284;18.860;2024-02-26T06:56:46;35.50;;;19.70;;
62056;SDS011;48016;50.284;18.860;2024-02-26T06:59:12;35.40;;;20.40;;
62056;SDS011;48016;50.284;18.860;2024-02-26T07:01:40;33.60;;;19.90;;
62056;SDS011;48016;50.284;18.860;2024-02-26T07:04:06;30.70;;;17.30;;
62056;SDS011;48016;50.284;18.860;2024-02-26T07:06:32;22.50;;;14.40;;
62056;SDS011;48016;50.284;18.860;2024-02-26T07:08:58;28.20;;;18.70;;
62056;SDS011;48016;50.284;18.860;2024-02-26T07:11:24;29.40;;;17.70;;
62056;SDS011;48016;50.284;18.860;2024-02-26T07:13:50;27.50;;;17.90;;
62056;SDS011;48016;50.284;18.860;2024-02-26T07:16:16;31.40;;;16.30;;
62056;SDS011;48016;50.284;18.860;2024-02-26T07:18:42;31.10;;;17.80;;
62056;SDS011;48016;50.284;18.860;2024-02-26T07:21:09;25.40;;;16.20;;
62056;SDS011;48016;50.284;18.860;2024-02-26T07:23:35;26.10;;;15.20;;
62056;SDS011;48016;50.284;18.860;2024-02-26T07:26:01;22.60;;;13.80;;
62056;SDS011;48016;50.284;18.860;2024-02-26T07:28:26;24.90;;;14.20;;
62056;SDS011;48016;50.284;18.860;2024-02-26T07:30:52;25.70;;;15.80;;
62056;SDS011;48016;50.284;18.860;2024-02-26T07:33:19;23.90;;;13.60;;
62056;SDS011;48016;50.284;18.860;2024-02-26T07:35:44;21.20;;;12.60;;
62056;SDS011;48016;50.284;18.860;2024-02-26T07:38:10;22.70;;;13.40;;
62056;SDS011;48016;50.284;18.860;2024-02-26T07:40:38;22.60;;;13.70;;
62056;SDS011;48016;50.284;18.860;2024-02-26T07:43:04;21.70;;;12.90;;
62056;SDS011;48016;50.284;18.860;2024-02-26T07:45:30;21.20;;;12.70;;
62056;SDS011;48016;50.284;18.860;2024-02-26T07:47:56;19.80;;;12.30;;
62056;SDS011;48016;50.284;18.860;2024-02-26T07:50:22;19.80;;;11.60;;
62056;SDS011;48016;50.284;18.860;2024-02-26T07:52:48;17.80;;;11.40;;
62056;SDS011;48016;50.284;18.860;2024-02-26T07:55:16;18.20;;;11.00;;
62056;SDS011;48016;50.284;18.860;2024-02-26T07:57:42;17.00;;;10.20;;
62056;SDS011;48016;50.284;18.860;2024-02-26T08:00:09;16.20;;;10.10;;
62056;SDS011;48016;50.284;18.860;2024-02-26T08:02:36;16.80;;;11.00;;
62056;SDS011;48016;50.284;18.860;2024-02-26T08:05:02;16.60;;;10.10;;
62056;SDS011;48016;50.284;18.860;2024-02-26T08:07:28;16.30;;;10.00;;
62056;SDS011;48016;50.284;18.860;2024-02-26T08:09:54;16.20;;;10.10;;
62056;SDS011;48016;50.284;18.860;2024-02-26T08:12:20;17.40;;;10.50;;
62056;SDS011;48016;50.284;18.860;2024-02-26T08:14:46;15.90;;;10.20;;
62056;SDS011;48016;50.284;18.860;2024-02-26T08:17:12;17.30;;;10.10;;
62056;SDS011;48016;50.284;18.860;2024-02-26T08:19:38;14.50;;;9.10;;
62056;SDS011;48016;50.284;18.860;2024-02-26T08:22:04;15.70;;;9.10;;
62056;SDS011;48016;50.284;18.860;2024-02-26T08:24:30;15.70;;;9.50;;
62056;SDS011;48016;50.284;18.860;2024-02-26T08:26:56;18.40;;;10.30;;
62056;SDS011;48016;50.284;18.860;2024-02-26T08:29:22;16.10;;;9.60;;
62056;SDS011;48016;50.284;18.860;2024-02-26T08:31:48;14.40;;;9.20;;
62056;SDS011;48016;50.284;18.860;2024-02-26T08:34:14;14.10;;;7.70;;
62056;SDS011;48016;50.284;18.860;2024-02-26T08:36:40;16.60;;;9.40;;
62056;SDS011;48016;50.284;18.860;2024-02-26T08:39:08;18.30;;;10.00;;
62056;SDS011;48016;50.284;18.860;2024-02-26T08:41:35;13.50;;;8.90;;
62056;SDS011;48016;50.284;18.860;2024-02-26T08:44:01;16.30;;;9.80;;
62056;SDS011;48016;50.284;18.860;2024-02-26T08:46:27;15.90;;;10.20;;
62056;SDS011;48016;50.284;18.860;2024-02-26T08:48:53;17.50;;;9.70;;
62056;SDS011;48016;50.284;18.860;2024-02-26T08:51:19;14.70;;;9.00;;
62056;SDS011;48016;50.284;18.860;2024-02-26T08:53:46;15.70;;;9.30;;
62056;SDS011;48016;50.284;18.860;2024-02-26T08:56:12;16.20;;;10.70;;
62056;SDS011;48016;50.284;18.860;2024-02-26T08:58:42;16.60;;;9.80;;
62056;SDS011;48016;50.284;18.860;2024-02-26T09:01:09;15.90;;;8.90;;
62056;SDS011;48016;50.284;18.860;2024-02-26T09:03:35;13.90;;;9.20;;
62056;SDS011;48016;50.284;18.860;2024-02-26T09:06:01;15.40;;;9.40;;
62056;SDS011;48016;50.284;18.860;2024-02-26T09:08:27;13.90;;;8.80;;
62056;SDS011;48016;50.284;18.860;2024-02-26T09:10:53;15.20;;;9.30;;
62056;SDS011;48016;50.284;18.860;2024-02-26T09:13:19;12.60;;;7.70;;
62056;SDS011;48016;50.284;18.860;2024-02-26T09:15:45;12.70;;;7.70;;
62056;SDS011;48016;50.284;18.860;2024-02-26T09:18:11;18.70;;;8.60;;
62056;SDS011;48016;50.284;18.860;2024-02-26T09:20:37;12.50;;;7.40;;
62056;SDS011;48016;50.284;18.860;2024-02-26T09:23:04;11.80;;;7.10;;
62056;SDS011;48016;50.284;18.860;2024-02-26T09:25:29;11.10;;;6.60;;
62056;SDS011;48016;50.284;18.860;2024-02-26T09:27:55;8.90;;;5.90;;
62056;SDS011;48016;50.284;18.860;2024-02-26T09:30:21;8.60;;;5.30;;
62056;SDS011;48016;50.284;18.860;2024-02-26T09:32:47;9.10;;;5.50;;
62056;SDS011;48016;50.284;18.860;2024-02-26T09:35:16;9.30;;;5.20;;
62056;SDS011;48016;50.284;18.860;2024-02-26T09:37:42;10.30;;;5.20;;
62056;SDS011;48016;50.284;18.860;2024-02-26T09:40:10;10.60;;;5.60;;
62056;SDS011;48016;50.284;18.860;2024-02-26T09:42:43;10.90;;;5.70;;
62056;SDS011;48016;50.284;18.860;2024-02-26T09:45:12;8.70;;;4.50;;
62056;SDS011;48016;50.284;18.860;2024-02-26T09:47:45;6.90;;;3.90;;
62056;SDS011;48016;50.284;18.860;2024-02-26T09:50:13;6.90;;;4.00;;
62056;SDS011;48016;50.284;18.860;2024-02-26T09:52:41;8.00;;;4.10;;
62056;SDS011;48016;50.284;18.860;2024-02-26T09:55:08;8.90;;;4.00;;
62056;SDS011;48016;50.284;18.860;2024-02-26T09:57:37;9.40;;;3.70;;
62056;SDS011;48016;50.284;18.860;2024-02-26T10:00:08;6.40;;;3.80;;
62056;SDS011;48016;50.284;18.860;2024-02-26T10:02:39;7.60;;;4.10;;
62056;SDS011;48016;50.284;18.860;2024-02-26T10:05:07;8.50;;;4.50;;
62056;SDS011;48016;50.284;18.860;2024-02-26T10:07:38;7.60;;;4.40;;
62056;SDS011;48016;50.284;18.860;2024-02-26T10:10:04;8.00;;;4.40;;
62056;SDS011;48016;50.284;18.860;2024-02-26T10:12:30;9.60;;;4.60;;
62056;SDS011;48016;50.284;18.860;2024-02-26T10:17:23;7.20;;;3.90;;
62056;SDS011;48016;50.284;18.860;2024-02-26T10:19:50;7.00;;;3.50;;
62056;SDS011;48016;50.284;18.860;2024-02-26T10:22:17;6.30;;;3.70;;
62056;SDS011;48016;50.284;18.860;2024-02-26T10:24:43;6.30;;;2.90;;
62056;SDS011;48016;50.284;18.860;2024-02-26T10:27:12;7.30;;;3.30;;
62056;SDS011;48016;50.284;18.860;2024-02-26T10:29:38;5.50;;;3.10;;
62056;SDS011;48016;50.284;18.860;2024-02-26T10:32:04;4.70;;;2.80;;
62056;SDS011;48016;50.284;18.860;2024-02-26T10:34:30;6.00;;;3.50;;
62056;SDS011;48016;50.284;18.860;2024-02-26T10:36:56;6.20;;;3.00;;
62056;SDS011;48016;50.284;18.860;2024-02-26T10:39:22;5.90;;;3.10;;
62056;SDS011;48016;50.284;18.860;2024-02-26T10:41:48;4.50;;;3.00;;
62056;SDS011;48016;50.284;18.860;2024-02-26T10:44:15;5.30;;;2.50;;
62056;SDS011;48016;50.284;18.860;2024-02-26T10:46:41;2.70;;;1.80;;
62056;SDS011;48016;50.284;18.860;2024-02-26T10:49:12;3.50;;;1.90;;
62056;SDS011;48016;50.284;18.860;2024-02-26T10:51:41;4.80;;;2.50;;
62056;SDS011;48016;50.284;18.860;2024-02-26T10:54:12;4.10;;;2.10;;
62056;SDS011;48016;50.284;18.860;2024-02-26T10:56:41;3.20;;;1.90;;
62056;SDS011;48016;50.284;18.860;2024-02-26T10:59:12;4.80;;;2.70;;
62056;SDS011;48016;50.284;18.860;2024-02-26T11:01:39;4.40;;;2.30;;
62056;SDS011;48016;50.284;18.860;2024-02-26T11:04:06;4.20;;;2.70;;
62056;SDS011;48016;50.284;18.860;2024-02-26T11:06:34;5.70;;;2.70;;
62056;SDS011;48016;50.284;18.860;2024-02-26T11:09:01;4.50;;;2.70;;
62056;SDS011;48016;50.284;18.860;2024-02-26T11:11:28;4.50;;;2.80;;
62056;SDS011;48016;50.284;18.860;2024-02-26T11:13:56;4.50;;;2.60;;
62056;SDS011;48016;50.284;18.860;2024-02-26T11:16:23;5.30;;;2.90;;
62056;SDS011;48016;50.284;18.860;2024-02-26T11:18:51;4.90;;;3.00;;
62056;SDS011;48016;50.284;18.860;2024-02-26T11:21:21;7.30;;;3.40;;
62056;SDS011;48016;50.284;18.860;2024-02-26T11:23:56;5.70;;;3.10;;
62056;SDS011;48016;50.284;18.860;2024-02-26T11:26:23;5.00;;;2.80;;
62056;SDS011;48016;50.284;18.860;2024-02-26T11:28:51;5.60;;;3.40;;
62056;SDS011;48016;50.284;18.860;2024-02-26T11:31:18;4.10;;;2.50;;
62056;SDS011;48016;50.284;18.860;2024-02-26T11:33:51;4.50;;;2.00;;
62056;SDS011;48016;50.284;18.860;2024-02-26T11:36:18;5.20;;;2.10;;
62056;SDS011;48016;50.284;18.860;2024-02-26T11:38:46;3.50;;;2.10;;
62056;SDS011;48016;50.284;18.860;2024-02-26T11:41:15;3.30;;;2.00;;
62056;SDS011;48016;50.284;18.860;2024-02-26T11:48:51;4.90;;;1.90;;
62056;SDS011;48016;50.284;18.860;2024-02-26T11:51:17;5.00;;;2.50;;
62056;SDS011;48016;50.284;18.860;2024-02-26T11:53:46;5.30;;;3.40;;
62056;SDS011;48016;50.284;18.860;2024-02-26T11:58:42;3.70;;;1.70;;
62056;SDS011;48016;50.284;18.860;2024-02-26T12:04:07;3.70;;;1.70;;
62056;SDS011;48016;50.284;18.860;2024-02-26T12:06:44;3.90;;;1.90;;
62056;SDS011;48016;50.284;18.860;2024-02-26T12:09:34;4.10;;;2.10;;
62056;SDS011;48016;50.284;18.860;2024-02-26T12:12:02;5.60;;;2.30;;
62056;SDS011;48016;50.284;18.860;2024-02-26T12:14:32;3.30;;;2.10;;
62056;SDS011;48016;50.284;18.860;2024-02-26T12:17:00;5.20;;;2.80;;
62056;SDS011;48016;50.284;18.860;2024-02-26T12:19:27;4.30;;;2.40;;
62056;SDS011;48016;50.284;18.860;2024-02-26T12:21:53;4.00;;;2.30;;
62056;SDS011;48016;50.284;18.860;2024-02-26T12:24:22;4.70;;;2.30;;
62056;SDS011;48016;50.284;18.860;2024-02-26T12:26:48;4.90;;;2.30;;
62056;SDS011;48016;50.284;18.860;2024-02-26T12:29:14;6.10;;;2.70;;
62056;SDS011;48016;50.284;18.860;2024-02-26T12:31:40;4.70;;;2.90;;
62056;SDS011;48016;50.284;18.860;2024-02-26T12:34:07;4.80;;;2.50;;
62056;SDS011;48016;50.284;18.860;2024-02-26T12:36:35;6.00;;;3.00;;
62056;SDS011;48016;50.284;18.860;2024-02-26T12:39:02;5.50;;;2.50;;
62056;SDS011;48016;50.284;18.860;2024-02-26T12:41:31;3.80;;;2.30;;
62056;SDS011;48016;50.284;18.860;2024-02-26T12:43:58;5.20;;;2.70;;
62056;SDS011;48016;50.284;18.860;2024-02-26T12:46:25;6.10;;;2.80;;
62056;SDS011;48016;50.284;18.860;2024-02-26T12:48:51;5.10;;;2.50;;
62056;SDS011;48016;50.284;18.860;2024-02-26T12:51:17;5.70;;;3.20;;
62056;SDS011;48016;50.284;18.860;2024-02-26T12:53:44;6.00;;;2.60;;
62056;SDS011;48016;50.284;18.860;2024-02-26T12:56:11;5.70;;;3.40;;
62056;SDS011;48016;50.284;18.860;2024-02-26T12:58:40;4.40;;;2.50;;
62056;SDS011;48016;50.284;18.860;2024-02-26T13:01:07;5.90;;;3.00;;
62056;SDS011;48016;50.284;18.860;2024-02-26T13:03:39;4.80;;;2.80;;
62056;SDS011;48016;50.284;18.860;2024-02-26T13:06:05;5.40;;;2.70;;
62056;SDS011;48016;50.284;18.860;2024-02-26T13:08:32;4.00;;;2.60;;
62056;SDS011;48016;50.284;18.860;2024-02-26T13:10:58;6.70;;;3.30;;
62056;SDS011;48016;50.284;18.860;2024-02-26T13:13:25;5.50;;;2.90;;
62056;SDS011;48016;50.284;18.860;2024-02-26T13:16:01;7.50;;;3.00;;
62056;SDS011;48016;50.284;18.860;2024-02-26T13:18:29;6.90;;;3.20;;
62056;SDS011;48016;50.284;18.860;2024-02-26T13:21:09;6.70;;;4.00;;
62056;SDS011;48016;50.284;18.860;2024-02-26T13:23:37;7.60;;;3.90;;
62056;SDS011;48016;50.284;18.860;2024-02-26T13:26:04;6.90;;;3.30;;
62056;SDS011;48016;50.284;18.860;2024-02-26T13:28:30;7.40;;;3.80;;
62056;SDS011;48016;50.284;18.860;2024-02-26T13:30:57;6.20;;;3.60;;
62056;SDS011;48016;50.284;18.860;2024-02-26T13:33:24;6.30;;;3.60;;
62056;SDS011;48016;50.284;18.860;2024-02-26T13:35:50;5.20;;;3.10;;
62056;SDS011;48016;50.284;18.860;2024-02-26T13:38:17;7.00;;;3.70;;
62056;SDS011;48016;50.284;18.860;2024-02-26T13:40:43;5.50;;;3.10;;
62056;SDS011;48016;50.284;18.860;2024-02-26T13:43:09;7.10;;;3.80;;
62056;SDS011;48016;50.284;18.860;2024-02-26T13:45:36;6.20;;;3.30;;
62056;SDS011;48016;50.284;18.860;2024-02-26T13:48:04;5.60;;;3.70;;
62056;SDS011;48016;50.284;18.860;2024-02-26T13:50:32;6.40;;;3.60;;
62056;SDS011;48016;50.284;18.860;2024-02-26T13:53:01;5.60;;;3.40;;
62056;SDS011;48016;50.284;18.860;2024-02-26T13:55:27;5.60;;;3.60;;
62056;SDS011;48016;50.284;18.860;2024-02-26T13:57:55;7.90;;;3.80;;
62056;SDS011;48016;50.284;18.860;2024-02-26T14:00:22;6.40;;;3.40;;
62056;SDS011;48016;50.284;18.860;2024-02-26T14:02:48;6.10;;;3.10;;
62056;SDS011;48016;50.284;18.860;2024-02-26T14:05:14;5.50;;;3.30;;
62056;SDS011;48016;50.284;18.860;2024-02-26T14:07:40;7.00;;;3.40;;
62056;SDS011;48016;50.284;18.860;2024-02-26T14:10:06;7.20;;;3.50;;
62056;SDS011;48016;50.284;18.860;2024-02-26T14:12:33;6.10;;;3.50;;
62056;SDS011;48016;50.284;18.860;2024-02-26T14:14:59;7.00;;;3.50;;
62056;SDS011;48016;50.284;18.860;2024-02-26T14:17:26;6.50;;;3.70;;
62056;SDS011;48016;50.284;18.860;2024-02-26T14:19:52;8.10;;;4.20;;
62056;SDS011;48016;50.284;18.860;2024-02-26T14:22:18;5.60;;;3.60;;
62056;SDS011;48016;50.284;18.860;2024-02-26T14:24:44;6.80;;;3.80;;
62056;SDS011;48016;50.284;18.860;2024-02-26T14:27:12;7.90;;;3.70;;
62056;SDS011;48016;50.284;18.860;2024-02-26T14:29:41;6.70;;;4.00;;
62056;SDS011;48016;50.284;18.860;2024-02-26T14:32:12;9.60;;;4.40;;